createdAt,value
2022-09-30T00:01:32.624Z,2.47
2022-09-30T00:04:00.358Z,2.70
2022-09-30T00:06:28.505Z,2.60
2022-09-30T00:08:56.277Z,2.40
2022-09-30T00:11:27.401Z,2.83
2022-09-30T00:16:47.890Z,2.93
2022-09-30T00:19:15.542Z,2.90
2022-09-30T00:21:43.074Z,2.80
2022-09-30T00:24:10.393Z,3.27
2022-09-30T00:26:39.767Z,3.13
2022-09-30T00:29:11.024Z,2.77
2022-09-30T00:31:38.379Z,2.90
2022-09-30T00:34:05.852Z,3.00
2022-09-30T00:36:33.535Z,2.77
2022-09-30T00:39:00.839Z,2.87
2022-09-30T00:41:28.153Z,3.07
2022-09-30T00:43:57.120Z,2.97
2022-09-30T00:46:28.262Z,2.50
2022-09-30T00:48:56.446Z,3.37
2022-09-30T00:51:27.782Z,2.73
2022-09-30T00:53:56.913Z,3.60
2022-09-30T00:56:25.459Z,3.33
2022-09-30T00:58:54.082Z,2.30
2022-09-30T01:01:23.479Z,3.30
2022-09-30T01:03:52.636Z,2.93
2022-09-30T01:06:21.763Z,3.50
2022-09-30T01:08:49.090Z,3.03
2022-09-30T01:11:16.594Z,2.93
2022-09-30T01:13:44.770Z,3.17
2022-09-30T01:16:30.835Z,2.73
2022-09-30T01:19:05.743Z,3.20
2022-09-30T01:21:53.153Z,2.70
2022-09-30T01:24:31.380Z,2.67
2022-09-30T01:27:05.118Z,2.83
2022-09-30T01:29:50.949Z,3.07
2022-09-30T01:32:25.662Z,2.93
2022-09-30T01:34:59.986Z,2.93
2022-09-30T01:37:33.102Z,2.90
2022-09-30T01:40:04.318Z,2.50
2022-09-30T01:42:36.439Z,2.63
2022-09-30T01:45:08.486Z,2.43
2022-09-30T01:47:48.107Z,2.73
2022-09-30T01:50:18.616Z,2.90
2022-09-30T01:52:49.614Z,3.20
2022-09-30T01:55:19.575Z,2.80
2022-09-30T01:57:58.007Z,2.93
2022-09-30T02:00:32.130Z,2.33
2022-09-30T02:03:03.163Z,3.53
2022-09-30T02:05:33.311Z,2.50
2022-09-30T02:08:01.583Z,2.83
2022-09-30T02:10:31.512Z,2.73
2022-09-30T02:13:01.023Z,2.80
2022-09-30T02:15:35.521Z,2.60
2022-09-30T02:18:08.372Z,2.83
2022-09-30T02:20:37.967Z,2.37
2022-09-30T02:23:08.133Z,2.40
2022-09-30T02:25:37.202Z,2.60
2022-09-30T02:28:07.335Z,2.53
2022-09-30T02:30:38.510Z,2.70
2022-09-30T02:33:09.105Z,2.50
2022-09-30T02:35:37.770Z,2.80
2022-09-30T02:38:07.217Z,2.40
2022-09-30T02:40:36.414Z,2.77
2022-09-30T02:43:05.272Z,2.47
2022-09-30T02:45:35.990Z,2.80
2022-09-30T02:48:14.627Z,2.80
2022-09-30T02:50:45.358Z,2.23
2022-09-30T02:53:17.423Z,2.80
2022-09-30T02:55:51.382Z,2.97
2022-09-30T02:58:27.746Z,2.50
2022-09-30T03:00:58.090Z,2.90
2022-09-30T03:03:28.777Z,2.90
2022-09-30T03:05:56.049Z,2.73
2022-09-30T03:08:23.213Z,3.00
2022-09-30T03:10:51.571Z,3.20
2022-09-30T03:13:24.998Z,2.73
2022-09-30T03:16:02.004Z,3.00
2022-09-30T03:18:34.733Z,2.70
2022-09-30T03:21:07.360Z,3.03
2022-09-30T03:23:45.070Z,3.20
2022-09-30T03:26:18.952Z,3.40
2022-09-30T03:28:52.954Z,3.10
2022-09-30T03:31:23.956Z,3.07
2022-09-30T03:33:53.946Z,3.43
2022-09-30T03:36:26.095Z,3.20
2022-09-30T03:38:55.488Z,3.20
2022-09-30T03:41:28.294Z,2.70
2022-09-30T03:43:58.566Z,3.23
2022-09-30T03:46:27.947Z,3.10
2022-09-30T03:48:58.562Z,3.50
2022-09-30T03:51:26.039Z,3.57
2022-09-30T03:53:53.302Z,3.37
2022-09-30T03:56:25.351Z,3.90
2022-09-30T03:58:53.710Z,3.40
2022-09-30T04:01:26.678Z,3.80
2022-09-30T04:03:54.656Z,3.30
2022-09-30T04:06:24.251Z,3.80
2022-09-30T04:08:51.854Z,3.47
2022-09-30T04:11:19.047Z,3.93
2022-09-30T04:13:46.337Z,3.50
2022-09-30T04:16:16.778Z,3.77
2022-09-30T04:18:44.036Z,3.93
2022-09-30T04:21:12.509Z,4.00
2022-09-30T04:23:42.470Z,3.73
2022-09-30T04:26:16.273Z,4.77
2022-09-30T04:28:55.452Z,4.50
2022-09-30T04:31:27.891Z,4.67
2022-09-30T04:33:55.148Z,5.17
2022-09-30T04:36:22.314Z,3.93
2022-09-30T04:38:50.905Z,5.53
2022-09-30T04:41:18.116Z,4.80
2022-09-30T04:43:45.479Z,4.40
2022-09-30T04:46:13.258Z,5.10
2022-09-30T04:48:40.678Z,5.13
2022-09-30T04:51:07.853Z,4.37
2022-09-30T04:53:35.094Z,5.17
2022-09-30T04:56:03.805Z,5.37
2022-09-30T04:58:36.044Z,6.07
2022-09-30T05:01:04.834Z,5.07
2022-09-30T05:03:32.307Z,5.70
2022-09-30T05:05:59.529Z,4.87
2022-09-30T05:08:27.079Z,5.57
2022-09-30T05:10:54.818Z,5.70
2022-09-30T05:13:23.520Z,5.63
2022-09-30T05:15:51.054Z,4.77
2022-09-30T05:18:18.515Z,5.63
2022-09-30T05:20:45.734Z,6.23
2022-09-30T05:23:12.946Z,5.70
2022-09-30T05:25:40.196Z,6.13
2022-09-30T05:28:07.408Z,5.83
2022-09-30T05:30:37.231Z,6.33
2022-09-30T05:33:04.929Z,6.20
2022-09-30T05:35:32.120Z,5.83
2022-09-30T05:38:00.497Z,5.87
2022-09-30T05:40:27.983Z,6.13
2022-09-30T05:42:57.087Z,5.97
2022-09-30T05:45:24.513Z,6.07
2022-09-30T05:47:53.564Z,5.27
2022-09-30T05:50:20.829Z,6.07
2022-09-30T05:52:48.214Z,5.70
2022-09-30T05:55:16.287Z,5.43
2022-09-30T05:57:43.526Z,5.33
2022-09-30T06:00:13.957Z,5.63
2022-09-30T06:02:44.458Z,5.80
2022-09-30T06:05:13.239Z,5.87
2022-09-30T06:07:40.433Z,6.63
2022-09-30T06:10:09.510Z,5.23
2022-09-30T06:12:36.690Z,6.00
2022-09-30T06:15:04.042Z,6.57
2022-09-30T06:17:31.257Z,6.47
2022-09-30T06:19:58.501Z,6.53
2022-09-30T06:22:27.042Z,5.87
2022-09-30T06:24:55.353Z,6.50
2022-09-30T06:27:22.897Z,6.60
2022-09-30T06:29:50.513Z,6.07
2022-09-30T06:32:17.679Z,6.33
2022-09-30T06:34:44.896Z,4.93
2022-09-30T06:37:12.118Z,6.43
2022-09-30T06:39:40.677Z,7.07
2022-09-30T06:42:08.024Z,6.53
2022-09-30T06:44:45.783Z,6.10
2022-09-30T06:47:24.673Z,5.83
2022-09-30T06:49:52.742Z,6.87
2022-09-30T06:52:20.438Z,5.57
2022-09-30T06:54:49.003Z,4.93
2022-09-30T06:57:16.382Z,5.83
2022-09-30T06:59:43.597Z,5.90
2022-09-30T07:02:11.967Z,5.67
2022-09-30T07:04:39.173Z,5.20
2022-09-30T07:07:06.414Z,5.43
2022-09-30T07:09:33.662Z,4.30
2022-09-30T07:12:02.621Z,5.00
2022-09-30T07:14:30.065Z,5.23
2022-09-30T07:16:57.250Z,6.13
2022-09-30T07:19:24.588Z,6.03
2022-09-30T07:21:51.946Z,5.00
2022-09-30T07:24:19.269Z,3.87
2022-09-30T07:26:46.462Z,4.27
2022-09-30T07:29:15.040Z,4.57
2022-09-30T07:31:42.412Z,4.53
2022-09-30T07:34:10.178Z,4.37
2022-09-30T07:36:38.790Z,5.43
2022-09-30T07:39:07.522Z,5.40
2022-09-30T07:41:35.957Z,5.23
2022-09-30T07:44:03.290Z,5.83
2022-09-30T07:46:33.139Z,5.30
2022-09-30T07:49:00.939Z,5.77
2022-09-30T07:51:29.156Z,4.27
2022-09-30T07:53:58.118Z,3.83
2022-09-30T07:56:25.822Z,4.57
2022-09-30T07:58:55.894Z,4.40
2022-09-30T08:01:23.515Z,3.70
2022-09-30T08:03:53.654Z,2.93
2022-09-30T08:06:21.393Z,4.30
2022-09-30T08:08:48.637Z,3.37
2022-09-30T08:11:15.958Z,3.87
2022-09-30T08:13:43.447Z,3.70
2022-09-30T08:16:10.797Z,3.30
2022-09-30T08:18:38.039Z,3.90
2022-09-30T08:21:07.248Z,2.80
2022-09-30T08:23:54.432Z,3.67
2022-09-30T08:26:21.897Z,3.50
2022-09-30T08:28:49.282Z,3.83
2022-09-30T08:31:17.414Z,4.23
2022-09-30T08:33:45.133Z,4.17
2022-09-30T08:36:14.395Z,3.57
2022-09-30T08:38:41.690Z,3.80
2022-09-30T08:41:23.070Z,2.93
2022-09-30T08:43:58.987Z,2.40
2022-09-30T08:46:31.328Z,3.10
2022-09-30T08:49:11.750Z,2.20
2022-09-30T08:51:55.282Z,2.80
2022-09-30T08:54:25.373Z,2.00
2022-09-30T08:56:52.786Z,1.83
2022-09-30T08:59:24.986Z,2.23
2022-09-30T09:01:54.429Z,2.40
2022-09-30T09:04:21.820Z,2.60
2022-09-30T09:06:54.011Z,2.63
2022-09-30T09:09:30.767Z,2.37
2022-09-30T09:12:02.599Z,1.67
2022-09-30T09:14:36.879Z,2.60
2022-09-30T09:17:15.430Z,2.37
2022-09-30T09:19:44.264Z,2.00
2022-09-30T09:22:11.610Z,1.67
2022-09-30T09:24:41.783Z,1.53
2022-09-30T09:27:17.786Z,1.50
2022-09-30T09:29:49.653Z,1.70
2022-09-30T09:32:17.852Z,1.60
2022-09-30T09:34:45.444Z,1.80
2022-09-30T09:37:16.295Z,1.53
2022-09-30T09:39:53.730Z,1.37
2022-09-30T09:42:29.390Z,2.13
2022-09-30T09:45:00.598Z,1.40
2022-09-30T09:47:27.816Z,1.20
2022-09-30T09:49:57.675Z,1.30
2022-09-30T09:52:36.109Z,1.30
2022-09-30T09:55:05.083Z,1.43
2022-09-30T09:57:41.774Z,1.40
2022-09-30T10:00:09.574Z,1.60
2022-09-30T10:02:36.862Z,1.40
2022-09-30T10:05:04.218Z,1.33
2022-09-30T10:07:32.654Z,1.70
2022-09-30T10:10:08.535Z,1.50
2022-09-30T10:12:36.206Z,1.90
2022-09-30T10:15:04.741Z,1.47
2022-09-30T10:17:32.559Z,1.50
2022-09-30T10:20:01.369Z,1.60
2022-09-30T10:22:29.346Z,1.33
2022-09-30T10:25:15.123Z,1.70
2022-09-30T10:27:49.684Z,1.90
2022-09-30T10:30:30.915Z,1.43
2022-09-30T10:32:58.943Z,1.60
2022-09-30T10:35:26.878Z,1.90
2022-09-30T10:37:55.521Z,1.80
2022-09-30T10:40:26.530Z,2.13
2022-09-30T10:42:55.524Z,3.17
2022-09-30T10:45:23.691Z,2.43
2022-09-30T10:47:52.199Z,2.27
2022-09-30T10:50:21.185Z,2.30
2022-09-30T10:52:51.275Z,2.40
2022-09-30T10:55:27.874Z,2.60
2022-09-30T10:58:23.176Z,2.77
2022-09-30T11:00:54.695Z,2.70
2022-09-30T11:03:31.166Z,2.77
2022-09-30T11:06:00.146Z,2.43
2022-09-30T11:08:30.971Z,2.20
2022-09-30T11:11:04.676Z,2.30
2022-09-30T11:13:38.903Z,2.30
2022-09-30T11:16:12.302Z,2.10
2022-09-30T11:18:44.143Z,2.10
2022-09-30T11:21:13.554Z,2.67
2022-09-30T11:23:45.152Z,1.70
2022-09-30T11:26:17.825Z,1.93
2022-09-30T11:29:04.227Z,1.90
2022-09-30T11:31:36.410Z,2.20
2022-09-30T11:34:10.830Z,2.00
2022-09-30T11:36:52.382Z,2.33
2022-09-30T11:39:29.950Z,2.33
2022-09-30T11:41:59.553Z,1.80
2022-09-30T11:44:33.151Z,2.30
2022-09-30T11:47:09.675Z,2.00
2022-09-30T11:49:57.090Z,2.40
2022-09-30T11:52:27.647Z,2.20
2022-09-30T11:55:01.911Z,1.50
2022-09-30T11:57:32.158Z,2.40
2022-09-30T12:00:02.929Z,2.23
2022-09-30T12:02:41.094Z,2.67
2022-09-30T12:05:10.944Z,2.33
2022-09-30T12:07:42.092Z,3.07
2022-09-30T12:10:18.062Z,2.47
2022-09-30T12:12:46.936Z,3.50
2022-09-30T12:15:17.089Z,3.23
2022-09-30T12:17:45.421Z,2.90
2022-09-30T12:20:16.410Z,3.00
2022-09-30T12:22:45.598Z,2.70
2022-09-30T12:25:15.613Z,3.07
2022-09-30T12:27:46.456Z,3.37
2022-09-30T12:30:15.342Z,2.13
2022-09-30T12:33:03.725Z,2.67
2022-09-30T12:35:38.447Z,2.17
2022-09-30T12:38:17.353Z,2.70
2022-09-30T12:40:52.773Z,2.80
2022-09-30T12:43:41.242Z,2.93
2022-09-30T12:46:15.137Z,2.90
2022-09-30T12:48:44.422Z,2.40
2022-09-30T12:51:21.423Z,2.30
2022-09-30T12:53:51.110Z,2.20
2022-09-30T12:56:19.270Z,2.60
2022-09-30T12:58:48.886Z,1.80
2022-09-30T13:01:23.433Z,1.90
2022-09-30T13:03:52.043Z,2.33
2022-09-30T13:06:21.864Z,2.03
2022-09-30T13:09:06.927Z,1.40
2022-09-30T13:11:36.177Z,1.73
2022-09-30T13:14:11.871Z,2.17
2022-09-30T13:16:57.512Z,1.40
2022-09-30T13:19:32.053Z,2.23
2022-09-30T13:22:14.270Z,2.03
2022-09-30T13:25:06.741Z,1.87
2022-09-30T13:27:37.875Z,2.00
2022-09-30T13:33:30.891Z,1.50
2022-09-30T13:35:59.273Z,1.83
2022-09-30T13:38:36.305Z,1.90
2022-09-30T13:41:05.731Z,1.60
2022-09-30T13:43:36.688Z,1.37
2022-09-30T13:46:07.190Z,1.63
2022-09-30T13:48:36.144Z,1.90
2022-09-30T13:51:07.627Z,1.50
2022-09-30T13:53:36.908Z,2.07
2022-09-30T13:56:07.108Z,2.20
2022-09-30T13:58:52.869Z,2.23
2022-09-30T14:01:34.907Z,2.40
2022-09-30T14:04:21.907Z,2.67
2022-09-30T14:06:59.367Z,2.43
2022-09-30T14:09:35.385Z,2.53
2022-09-30T14:12:08.318Z,2.70
2022-09-30T14:14:46.975Z,2.47
2022-09-30T14:17:22.007Z,2.23
2022-09-30T14:19:57.168Z,2.33
2022-09-30T14:22:49.053Z,2.33
2022-09-30T14:25:17.458Z,2.90
2022-09-30T14:28:05.642Z,2.87
2022-09-30T14:30:38.179Z,2.80
2022-09-30T14:33:10.950Z,3.40
2022-09-30T14:35:39.281Z,2.93
2022-09-30T14:38:08.409Z,3.73
2022-09-30T14:40:36.823Z,3.33
2022-09-30T14:43:05.348Z,3.80
2022-09-30T14:45:33.918Z,3.67
2022-09-30T14:48:05.959Z,3.37
2022-09-30T14:50:37.789Z,3.50
2022-09-30T14:53:05.025Z,3.73
2022-09-30T14:55:33.219Z,3.63
2022-09-30T14:58:20.022Z,3.50
2022-09-30T15:00:49.491Z,4.17
2022-09-30T15:03:18.191Z,4.23
2022-09-30T15:05:54.668Z,3.70
2022-09-30T15:08:40.581Z,3.60
2022-09-30T15:11:17.928Z,3.63
2022-09-30T15:13:45.442Z,4.30
2022-09-30T15:16:22.966Z,3.67
2022-09-30T15:18:51.621Z,4.70
2022-09-30T15:21:18.903Z,3.97
2022-09-30T15:23:47.898Z,4.23
2022-09-30T15:26:15.559Z,3.83
2022-09-30T15:28:42.796Z,4.07
2022-09-30T15:31:18.957Z,4.17
2022-09-30T15:33:46.358Z,3.80
2022-09-30T15:36:16.200Z,3.60
2022-09-30T15:38:48.161Z,3.30
2022-09-30T15:41:20.295Z,3.60
2022-09-30T15:43:48.418Z,3.17
2022-09-30T15:46:29.428Z,3.37
2022-09-30T15:48:58.315Z,3.83
2022-09-30T15:51:50.370Z,3.30
2022-09-30T15:54:39.146Z,3.20
2022-09-30T15:57:35.535Z,3.30
2022-09-30T16:00:03.168Z,3.50
2022-09-30T16:02:31.826Z,2.27
2022-09-30T16:04:59.813Z,3.00
2022-09-30T16:07:27.082Z,3.20
2022-09-30T16:09:55.350Z,2.97
2022-09-30T16:12:24.693Z,3.27
2022-09-30T16:14:53.385Z,3.00
2022-09-30T16:17:22.463Z,2.97
2022-09-30T16:19:53.045Z,2.80
2022-09-30T16:22:37.397Z,2.80
2022-09-30T16:25:12.584Z,2.67
2022-09-30T16:27:41.783Z,2.33
2022-09-30T16:30:13.719Z,2.80
2022-09-30T16:32:43.404Z,2.60
2022-09-30T16:35:35.448Z,2.17
2022-09-30T16:38:20.860Z,2.87
2022-09-30T16:40:48.086Z,2.23
2022-09-30T16:43:16.643Z,2.20
2022-09-30T16:45:43.978Z,2.90
2022-09-30T16:48:14.770Z,2.40
2022-09-30T16:50:44.359Z,2.03
2022-09-30T16:53:11.571Z,2.23
2022-09-30T16:55:38.814Z,2.33
2022-09-30T16:58:06.099Z,2.83
2022-09-30T17:00:35.046Z,2.03
2022-09-30T17:03:02.296Z,2.33
2022-09-30T17:05:29.535Z,2.50
2022-09-30T17:07:57.898Z,2.20
2022-09-30T17:10:27.083Z,2.30
2022-09-30T17:12:54.286Z,2.43
2022-09-30T17:15:21.789Z,2.00
2022-09-30T17:17:50.317Z,2.97
2022-09-30T17:20:17.657Z,2.20
2022-09-30T17:22:45.703Z,2.33
2022-09-30T17:25:13.223Z,2.20
2022-09-30T17:27:40.574Z,2.30
2022-09-30T17:30:08.364Z,2.00
2022-09-30T17:32:35.620Z,2.10
2022-09-30T17:35:04.774Z,2.60
2022-09-30T17:37:32.354Z,2.37
2022-09-30T17:40:04.555Z,2.10
2022-09-30T17:42:31.749Z,2.20
2022-09-30T17:44:59.172Z,2.50
2022-09-30T17:47:26.430Z,2.50
2022-09-30T17:49:53.808Z,2.60
2022-09-30T17:52:22.563Z,2.67
2022-09-30T17:54:52.450Z,3.00
2022-09-30T17:57:20.042Z,2.57
2022-09-30T17:59:47.262Z,2.97
2022-09-30T18:02:14.833Z,3.20
2022-09-30T18:04:42.085Z,2.97
2022-09-30T18:07:09.794Z,3.60
2022-09-30T18:09:38.459Z,3.30
2022-09-30T18:12:05.775Z,3.20
2022-09-30T18:14:33.050Z,3.13
2022-09-30T18:17:00.236Z,2.43
2022-09-30T18:19:27.482Z,3.03
2022-09-30T18:21:54.810Z,2.83
2022-09-30T18:24:22.013Z,2.47
2022-09-30T18:26:50.575Z,2.83
2022-09-30T18:29:17.818Z,2.93
2022-09-30T18:31:45.113Z,2.50
2022-09-30T18:37:45.726Z,2.43
2022-09-30T18:40:12.960Z,2.60
2022-09-30T18:42:41.483Z,2.23
2022-09-30T18:45:09.365Z,2.90
2022-09-30T18:47:36.587Z,2.37
2022-09-30T18:50:04.183Z,2.27
2022-09-30T18:52:31.427Z,2.53
2022-09-30T18:54:58.618Z,2.70
2022-09-30T18:57:25.818Z,2.80
2022-09-30T18:59:54.349Z,2.67
2022-09-30T19:02:21.550Z,2.97
2022-09-30T19:04:48.791Z,2.10
2022-09-30T19:07:19.219Z,2.33
2022-09-30T19:09:46.410Z,2.80
2022-09-30T19:12:13.635Z,2.30
2022-09-30T19:14:40.839Z,2.70
2022-09-30T19:17:09.376Z,2.47
2022-09-30T19:19:36.583Z,2.43
2022-09-30T19:22:03.821Z,3.10
2022-09-30T19:24:31.096Z,2.20
2022-09-30T19:26:58.311Z,2.40
2022-09-30T19:29:25.537Z,2.70
2022-09-30T19:31:52.826Z,1.97
2022-09-30T19:34:31.151Z,2.70
2022-09-30T19:36:59.521Z,2.97
2022-09-30T19:39:38.627Z,2.63
2022-09-30T19:42:09.147Z,3.27
2022-09-30T19:44:36.349Z,2.67
2022-09-30T19:47:03.525Z,2.57
2022-09-30T19:49:32.055Z,2.83
2022-09-30T19:51:59.571Z,2.40
2022-09-30T19:54:39.894Z,2.27
2022-09-30T19:57:08.700Z,2.40
2022-09-30T19:59:35.942Z,2.20
2022-09-30T20:02:03.155Z,2.30
2022-09-30T20:04:31.800Z,2.40
2022-09-30T20:06:59.051Z,2.20
2022-09-30T20:09:26.241Z,2.83
2022-09-30T20:11:53.466Z,2.47
2022-09-30T20:14:20.751Z,2.60
2022-09-30T20:16:48.113Z,2.63
2022-09-30T20:19:15.461Z,1.97
2022-09-30T20:21:44.250Z,2.40
2022-09-30T20:24:11.904Z,3.03
2022-09-30T20:26:39.478Z,2.07
2022-09-30T20:29:06.940Z,2.57
2022-09-30T20:31:34.685Z,1.93
2022-09-30T20:34:02.549Z,1.87
2022-09-30T20:36:30.685Z,1.97
2022-09-30T20:39:01.067Z,2.00
2022-09-30T20:41:29.079Z,1.97
2022-09-30T20:43:56.460Z,1.67
2022-09-30T20:46:24.965Z,2.22
2022-09-30T20:48:52.329Z,2.37
2022-09-30T20:51:20.790Z,2.20
2022-09-30T20:53:50.895Z,2.30
2022-09-30T20:56:20.241Z,2.23
2022-09-30T20:58:47.453Z,2.00
2022-09-30T21:01:15.322Z,1.93
2022-09-30T21:03:42.558Z,2.37
2022-09-30T21:06:10.475Z,2.70
2022-09-30T21:08:37.997Z,2.30
2022-09-30T21:11:05.347Z,2.03
2022-09-30T21:13:34.121Z,2.23
2022-09-30T21:16:01.816Z,1.97
2022-09-30T21:18:29.042Z,2.20
2022-09-30T21:20:57.090Z,2.43
2022-09-30T21:23:24.295Z,2.77
2022-09-30T21:25:56.447Z,2.40
2022-09-30T21:28:23.770Z,2.63
2022-09-30T21:30:52.456Z,2.60
2022-09-30T21:33:19.789Z,2.47
2022-09-30T21:35:47.463Z,2.43
2022-09-30T21:38:14.837Z,2.30
2022-09-30T21:40:42.047Z,2.37
2022-09-30T21:43:09.276Z,2.80
2022-09-30T21:45:39.667Z,2.53
2022-09-30T21:48:08.243Z,2.43
2022-09-30T21:50:35.762Z,2.70
2022-09-30T21:53:03.119Z,2.73
2022-09-30T21:55:30.337Z,2.50
2022-09-30T21:57:57.540Z,2.27
2022-09-30T22:00:25.657Z,3.13
2022-09-30T22:02:52.879Z,2.37
2022-09-30T22:05:21.414Z,2.50
2022-09-30T22:07:48.791Z,2.90
2022-09-30T22:10:16.143Z,2.40
2022-09-30T22:12:43.329Z,3.10
2022-09-30T22:15:10.806Z,2.67
2022-09-30T22:17:37.980Z,2.57
2022-09-30T22:20:05.666Z,2.60
2022-09-30T22:22:34.800Z,2.80
2022-09-30T22:25:02.105Z,2.73
2022-09-30T22:27:31.256Z,3.33
2022-09-30T22:30:00.430Z,3.10
2022-09-30T22:32:27.806Z,2.33
2022-09-30T22:34:55.098Z,2.70
2022-09-30T22:37:31.671Z,3.13
2022-09-30T22:40:01.225Z,2.43
2022-09-30T22:42:28.599Z,2.77
2022-09-30T22:44:55.938Z,3.13
2022-09-30T22:47:23.099Z,2.90
2022-09-30T22:49:50.316Z,2.13
2022-09-30T22:52:17.498Z,2.57
2022-09-30T22:54:44.777Z,2.23
2022-09-30T22:57:13.302Z,2.97
2022-09-30T22:59:40.519Z,2.50
2022-09-30T23:02:07.858Z,2.17
2022-09-30T23:04:35.271Z,2.37
2022-09-30T23:09:58.670Z,2.87
2022-09-30T23:12:27.211Z,2.87
2022-09-30T23:14:54.641Z,2.20
2022-09-30T23:17:21.826Z,2.87
2022-09-30T23:19:49.034Z,2.90
2022-09-30T23:22:16.215Z,3.23
2022-09-30T23:24:43.500Z,2.37
2022-09-30T23:27:11.062Z,2.80
2022-09-30T23:29:39.641Z,2.53
2022-09-30T23:32:06.893Z,3.53
2022-09-30T23:34:34.493Z,3.07
2022-09-30T23:37:01.693Z,3.10
2022-09-30T23:39:29.309Z,2.97
2022-09-30T23:41:59.701Z,2.50
2022-09-30T23:44:26.927Z,2.73
2022-09-30T23:46:55.606Z,2.20
2022-09-30T23:49:22.786Z,3.17
2022-09-30T23:51:49.975Z,3.43
2022-09-30T23:54:17.258Z,3.10
2022-09-30T23:56:44.510Z,3.30
2022-09-30T23:59:11.871Z,2.67
